sensor_id;sensor_type;location;lat;lon;timestamp;temperature;humidity
70336;SHT31;57756;47.408;18.940;2023-04-19T00:02:23;12.41;66.08
70336;SHT31;57756;47.408;18.940;2023-04-19T00:04:49;12.42;65.29
70336;SHT31;57756;47.408;18.940;2023-04-19T00:07:15;12.41;66.24
70336;SHT31;57756;47.408;18.940;2023-04-19T00:09:42;12.41;65.87
70336;SHT31;57756;47.408;18.940;2023-04-19T00:12:08;12.40;66.61
70336;SHT31;57756;47.408;18.940;2023-04-19T00:14:33;12.41;66.54
70336;SHT31;57756;47.408;18.940;2023-04-19T00:16:59;12.41;66.40
70336;SHT31;57756;47.408;18.940;2023-04-19T00:19:24;12.38;66.68
70336;SHT31;57756;47.408;18.940;2023-04-19T00:21:50;12.42;65.41
70336;SHT31;57756;47.408;18.940;2023-04-19T00:24:16;12.38;66.81
70336;SHT31;57756;47.408;18.940;2023-04-19T00:26:42;12.38;67.01
70336;SHT31;57756;47.408;18.940;2023-04-19T00:29:08;12.37;67.17
70336;SHT31;57756;47.408;18.940;2023-04-19T00:31:34;12.33;66.94
70336;SHT31;57756;47.408;18.940;2023-04-19T00:33:59;12.33;66.77
70336;SHT31;57756;47.408;18.940;2023-04-19T00:36:24;12.33;67.88
70336;SHT31;57756;47.408;18.940;2023-04-19T00:38:50;12.30;66.99
70336;SHT31;57756;47.408;18.940;2023-04-19T00:41:16;12.29;66.85
70336;SHT31;57756;47.408;18.940;2023-04-19T00:43:41;12.24;67.20
70336;SHT31;57756;47.408;18.940;2023-04-19T00:46:07;12.21;67.82
70336;SHT31;57756;47.408;18.940;2023-04-19T00:48:33;12.14;67.87
70336;SHT31;57756;47.408;18.940;2023-04-19T00:51:01;12.12;67.82
70336;SHT31;57756;47.408;18.940;2023-04-19T00:53:26;12.07;67.27
70336;SHT31;57756;47.408;18.940;2023-04-19T00:55:53;12.04;67.18
70336;SHT31;57756;47.408;18.940;2023-04-19T00:58:21;12.02;67.13
70336;SHT31;57756;47.408;18.940;2023-04-19T01:00:47;11.94;67.54
70336;SHT31;57756;47.408;18.940;2023-04-19T01:03:13;11.87;68.34
70336;SHT31;57756;47.408;18.940;2023-04-19T01:05:38;11.81;68.90
70336;SHT31;57756;47.408;18.940;2023-04-19T01:08:04;11.82;68.71
70336;SHT31;57756;47.408;18.940;2023-04-19T01:10:30;11.79;69.29
70336;SHT31;57756;47.408;18.940;2023-04-19T01:12:55;11.75;69.51
70336;SHT31;57756;47.408;18.940;2023-04-19T01:15:21;11.76;69.47
70336;SHT31;57756;47.408;18.940;2023-04-19T01:17:47;11.72;69.69
70336;SHT31;57756;47.408;18.940;2023-04-19T01:20:13;11.69;69.93
70336;SHT31;57756;47.408;18.940;2023-04-19T01:22:38;11.69;69.39
70336;SHT31;57756;47.408;18.940;2023-04-19T01:25:04;11.69;69.54
70336;SHT31;57756;47.408;18.940;2023-04-19T01:27:31;11.61;70.05
70336;SHT31;57756;47.408;18.940;2023-04-19T01:29:57;11.59;69.49
70336;SHT31;57756;47.408;18.940;2023-04-19T01:32:22;11.55;69.91
70336;SHT31;57756;47.408;18.940;2023-04-19T01:34:49;11.46;70.21
70336;SHT31;57756;47.408;18.940;2023-04-19T01:37:15;11.50;69.82
70336;SHT31;57756;47.408;18.940;2023-04-19T01:39:40;11.42;70.67
70336;SHT31;57756;47.408;18.940;2023-04-19T01:42:05;11.41;70.98
70336;SHT31;57756;47.408;18.940;2023-04-19T01:44:31;11.35;70.76
70336;SHT31;57756;47.408;18.940;2023-04-19T01:46:56;11.34;71.26
70336;SHT31;57756;47.408;18.940;2023-04-19T01:49:22;11.28;71.42
70336;SHT31;57756;47.408;18.940;2023-04-19T01:51:47;11.30;71.67
70336;SHT31;57756;47.408;18.940;2023-04-19T01:54:13;11.24;71.96
70336;SHT31;57756;47.408;18.940;2023-04-19T01:56:38;11.18;71.79
70336;SHT31;57756;47.408;18.940;2023-04-19T01:59:04;11.24;71.92
70336;SHT31;57756;47.408;18.940;2023-04-19T02:01:29;11.25;72.65
70336;SHT31;57756;47.408;18.940;2023-04-19T02:03:58;11.20;71.94
70336;SHT31;57756;47.408;18.940;2023-04-19T02:06:23;11.17;71.94
70336;SHT31;57756;47.408;18.940;2023-04-19T02:08:49;11.17;72.32
70336;SHT31;57756;47.408;18.940;2023-04-19T02:11:14;11.16;72.09
70336;SHT31;57756;47.408;18.940;2023-04-19T02:13:40;11.08;72.98
70336;SHT31;57756;47.408;18.940;2023-04-19T02:16:06;11.07;73.15
70336;SHT31;57756;47.408;18.940;2023-04-19T02:18:32;11.01;73.58
70336;SHT31;57756;47.408;18.940;2023-04-19T02:21:03;11.00;74.16
70336;SHT31;57756;47.408;18.940;2023-04-19T02:23:29;10.96;74.55
70336;SHT31;57756;47.408;18.940;2023-04-19T02:25:54;10.92;74.64
70336;SHT31;57756;47.408;18.940;2023-04-19T02:28:20;10.97;75.36
70336;SHT31;57756;47.408;18.940;2023-04-19T02:30:45;10.95;75.37
70336;SHT31;57756;47.408;18.940;2023-04-19T02:33:11;10.96;76.03
70336;SHT31;57756;47.408;18.940;2023-04-19T02:35:36;10.95;76.24
70336;SHT31;57756;47.408;18.940;2023-04-19T02:38:03;10.96;76.46
70336;SHT31;57756;47.408;18.940;2023-04-19T02:40:29;10.96;76.64
70336;SHT31;57756;47.408;18.940;2023-04-19T02:42:54;11.01;76.83
70336;SHT31;57756;47.408;18.940;2023-04-19T02:45:20;10.97;76.94
70336;SHT31;57756;47.408;18.940;2023-04-19T02:47:46;11.00;76.77
70336;SHT31;57756;47.408;18.940;2023-04-19T02:50:12;11.00;76.72
70336;SHT31;57756;47.408;18.940;2023-04-19T02:52:38;10.97;76.07
70336;SHT31;57756;47.408;18.940;2023-04-19T02:55:05;11.04;75.33
70336;SHT31;57756;47.408;18.940;2023-04-19T02:57:30;11.00;75.43
70336;SHT31;57756;47.408;18.940;2023-04-19T02:59:56;10.99;75.51
70336;SHT31;57756;47.408;18.940;2023-04-19T03:02:21;11.00;75.33
70336;SHT31;57756;47.408;18.940;2023-04-19T03:04:47;10.93;75.48
70336;SHT31;57756;47.408;18.940;2023-04-19T03:07:12;10.86;75.75
70336;SHT31;57756;47.408;18.940;2023-04-19T03:09:38;10.76;75.87
70336;SHT31;57756;47.408;18.940;2023-04-19T03:12:05;10.73;75.57
70336;SHT31;57756;47.408;18.940;2023-04-19T03:14:31;10.69;76.24
70336;SHT31;57756;47.408;18.940;2023-04-19T03:16:58;10.68;76.76
70336;SHT31;57756;47.408;18.940;2023-04-19T03:19:24;10.59;76.37
70336;SHT31;57756;47.408;18.940;2023-04-19T03:21:49;10.55;76.19
70336;SHT31;57756;47.408;18.940;2023-04-19T03:24:17;10.52;76.22
70336;SHT31;57756;47.408;18.940;2023-04-19T03:26:43;10.49;76.55
70336;SHT31;57756;47.408;18.940;2023-04-19T03:29:08;10.46;76.18
70336;SHT31;57756;47.408;18.940;2023-04-19T03:31:34;10.49;75.96
70336;SHT31;57756;47.408;18.940;2023-04-19T03:34:00;10.49;76.07
70336;SHT31;57756;47.408;18.940;2023-04-19T03:36:25;10.45;76.17
70336;SHT31;57756;47.408;18.940;2023-04-19T03:38:51;10.42;75.89
70336;SHT31;57756;47.408;18.940;2023-04-19T03:41:25;10.39;76.24
70336;SHT31;57756;47.408;18.940;2023-04-19T03:43:50;10.37;76.29
70336;SHT31;57756;47.408;18.940;2023-04-19T03:46:16;10.31;76.83
70336;SHT31;57756;47.408;18.940;2023-04-19T03:48:42;10.30;76.30
70336;SHT31;57756;47.408;18.940;2023-04-19T03:51:07;10.30;76.23
70336;SHT31;57756;47.408;18.940;2023-04-19T03:53:33;10.35;75.87
70336;SHT31;57756;47.408;18.940;2023-04-19T03:55:58;10.38;75.54
70336;SHT31;57756;47.408;18.940;2023-04-19T03:58:24;10.34;75.57
70336;SHT31;57756;47.408;18.940;2023-04-19T04:00:49;10.35;74.80
70336;SHT31;57756;47.408;18.940;2023-04-19T04:03:16;10.39;74.30
70336;SHT31;57756;47.408;18.940;2023-04-19T04:05:41;10.38;74.21
70336;SHT31;57756;47.408;18.940;2023-04-19T04:08:07;10.37;74.38
70336;SHT31;57756;47.408;18.940;2023-04-19T04:10:32;10.37;74.59
70336;SHT31;57756;47.408;18.940;2023-04-19T04:12:58;10.35;74.43
70336;SHT31;57756;47.408;18.940;2023-04-19T04:15:23;10.34;74.69
70336;SHT31;57756;47.408;18.940;2023-04-19T04:17:49;10.34;74.26
70336;SHT31;57756;47.408;18.940;2023-04-19T04:20:15;10.35;73.93
70336;SHT31;57756;47.408;18.940;2023-04-19T04:22:44;10.34;74.54
70336;SHT31;57756;47.408;18.940;2023-04-19T04:25:15;10.35;74.11
70336;SHT31;57756;47.408;18.940;2023-04-19T04:27:41;10.38;74.54
70336;SHT31;57756;47.408;18.940;2023-04-19T04:30:08;10.41;73.78
70336;SHT31;57756;47.408;18.940;2023-04-19T04:32:34;10.42;73.66
70336;SHT31;57756;47.408;18.940;2023-04-19T04:35:01;10.46;73.52
70336;SHT31;57756;47.408;18.940;2023-04-19T04:37:26;10.52;73.00
70336;SHT31;57756;47.408;18.940;2023-04-19T04:39:52;10.56;72.99
70336;SHT31;57756;47.408;18.940;2023-04-19T04:42:17;10.60;72.73
70336;SHT31;57756;47.408;18.940;2023-04-19T04:44:45;10.65;72.71
70336;SHT31;57756;47.408;18.940;2023-04-19T04:47:14;10.77;71.85
70336;SHT31;57756;47.408;18.940;2023-04-19T04:49:39;10.84;71.71
70336;SHT31;57756;47.408;18.940;2023-04-19T04:52:05;10.89;72.22
70336;SHT31;57756;47.408;18.940;2023-04-19T04:54:30;11.00;72.35
70336;SHT31;57756;47.408;18.940;2023-04-19T04:56:57;11.11;72.04
70336;SHT31;57756;47.408;18.940;2023-04-19T04:59:23;11.25;72.43
70336;SHT31;57756;47.408;18.940;2023-04-19T05:01:48;11.44;72.50
70336;SHT31;57756;47.408;18.940;2023-04-19T05:04:14;11.63;72.17
70336;SHT31;57756;47.408;18.940;2023-04-19T05:06:39;11.78;71.43
70336;SHT31;57756;47.408;18.940;2023-04-19T05:09:05;11.90;71.82
70336;SHT31;57756;47.408;18.940;2023-04-19T05:11:32;12.06;71.46
70336;SHT31;57756;47.408;18.940;2023-04-19T05:13:57;12.13;71.24
70336;SHT31;57756;47.408;18.940;2023-04-19T05:16:25;12.26;71.38
70336;SHT31;57756;47.408;18.940;2023-04-19T05:18:50;12.48;71.22
70336;SHT31;57756;47.408;18.940;2023-04-19T05:21:16;12.55;71.81
70336;SHT31;57756;47.408;18.940;2023-04-19T05:23:41;12.54;71.98
70336;SHT31;57756;47.408;18.940;2023-04-19T05:26:07;12.52;71.56
70336;SHT31;57756;47.408;18.940;2023-04-19T05:28:36;12.67;72.24
70336;SHT31;57756;47.408;18.940;2023-04-19T05:31:02;12.79;71.50
70336;SHT31;57756;47.408;18.940;2023-04-19T05:33:27;12.89;70.70
70336;SHT31;57756;47.408;18.940;2023-04-19T05:35:53;12.91;70.18
70336;SHT31;57756;47.408;18.940;2023-04-19T05:38:18;13.14;70.20
70336;SHT31;57756;47.408;18.940;2023-04-19T05:40:44;13.33;68.13
70336;SHT31;57756;47.408;18.940;2023-04-19T05:43:09;13.53;68.50
70336;SHT31;57756;47.408;18.940;2023-04-19T05:45:35;13.62;66.54
70336;SHT31;57756;47.408;18.940;2023-04-19T05:48:01;13.92;66.04
70336;SHT31;57756;47.408;18.940;2023-04-19T05:50:26;14.16;65.55
70336;SHT31;57756;47.408;18.940;2023-04-19T05:52:52;14.33;65.13
70336;SHT31;57756;47.408;18.940;2023-04-19T05:55:17;14.66;64.50
70336;SHT31;57756;47.408;18.940;2023-04-19T05:57:42;15.01;63.34
70336;SHT31;57756;47.408;18.940;2023-04-19T06:00:09;15.21;63.25
70336;SHT31;57756;47.408;18.940;2023-04-19T06:02:35;15.19;62.66
70336;SHT31;57756;47.408;18.940;2023-04-19T06:05:01;15.09;64.73
70336;SHT31;57756;47.408;18.940;2023-04-19T06:07:29;15.12;64.68
70336;SHT31;57756;47.408;18.940;2023-04-19T06:09:55;15.14;65.55
70336;SHT31;57756;47.408;18.940;2023-04-19T06:12:20;14.98;65.48
70336;SHT31;57756;47.408;18.940;2023-04-19T06:14:46;14.80;66.04
70336;SHT31;57756;47.408;18.940;2023-04-19T06:17:12;15.01;65.42
70336;SHT31;57756;47.408;18.940;2023-04-19T06:19:38;15.14;65.33
70336;SHT31;57756;47.408;18.940;2023-04-19T06:22:04;15.71;63.90
70336;SHT31;57756;47.408;18.940;2023-04-19T06:24:29;16.22;62.98
70336;SHT31;57756;47.408;18.940;2023-04-19T06:26:55;16.65;62.67
70336;SHT31;57756;47.408;18.940;2023-04-19T06:29:21;17.06;62.18
70336;SHT31;57756;47.408;18.940;2023-04-19T06:31:48;17.30;60.02
70336;SHT31;57756;47.408;18.940;2023-04-19T06:34:14;17.56;60.50
70336;SHT31;57756;47.408;18.940;2023-04-19T06:36:39;17.43;60.38
70336;SHT31;57756;47.408;18.940;2023-04-19T06:39:05;17.08;60.00
70336;SHT31;57756;47.408;18.940;2023-04-19T06:41:30;17.07;60.37
70336;SHT31;57756;47.408;18.940;2023-04-19T06:43:56;17.14;59.80
70336;SHT31;57756;47.408;18.940;2023-04-19T06:46:21;17.18;59.06
70336;SHT31;57756;47.408;18.940;2023-04-19T06:48:47;17.25;60.50
70336;SHT31;57756;47.408;18.940;2023-04-19T06:51:12;17.14;60.25
70336;SHT31;57756;47.408;18.940;2023-04-19T06:53:38;17.41;59.60
70336;SHT31;57756;47.408;18.940;2023-04-19T06:56:04;17.65;58.27
70336;SHT31;57756;47.408;18.940;2023-04-19T06:58:30;17.65;55.25
70336;SHT31;57756;47.408;18.940;2023-04-19T07:00:58;18.08;56.72
70336;SHT31;57756;47.408;18.940;2023-04-19T07:03:25;18.41;57.19
70336;SHT31;57756;47.408;18.940;2023-04-19T07:05:51;18.71;56.56
70336;SHT31;57756;47.408;18.940;2023-04-19T07:08:17;18.71;56.76
70336;SHT31;57756;47.408;18.940;2023-04-19T07:10:42;18.73;54.53
70336;SHT31;57756;47.408;18.940;2023-04-19T07:13:11;18.75;53.23
70336;SHT31;57756;47.408;18.940;2023-04-19T07:15:37;19.10;52.86
70336;SHT31;57756;47.408;18.940;2023-04-19T07:18:02;19.44;53.23
70336;SHT31;57756;47.408;18.940;2023-04-19T07:20:28;19.54;51.50
70336;SHT31;57756;47.408;18.940;2023-04-19T07:22:58;19.77;52.18
70336;SHT31;57756;47.408;18.940;2023-04-19T07:25:24;20.20;52.47
70336;SHT31;57756;47.408;18.940;2023-04-19T07:27:52;20.43;50.72
70336;SHT31;57756;47.408;18.940;2023-04-19T07:30:18;20.44;51.38
70336;SHT31;57756;47.408;18.940;2023-04-19T07:32:43;20.71;52.19
70336;SHT31;57756;47.408;18.940;2023-04-19T07:35:10;20.72;51.64
70336;SHT31;57756;47.408;18.940;2023-04-19T07:37:36;21.03;51.92
70336;SHT31;57756;47.408;18.940;2023-04-19T07:40:01;21.09;51.85
70336;SHT31;57756;47.408;18.940;2023-04-19T07:42:28;21.16;51.54
70336;SHT31;57756;47.408;18.940;2023-04-19T07:44:54;20.98;51.83
70336;SHT31;57756;47.408;18.940;2023-04-19T07:47:20;21.19;52.64
70336;SHT31;57756;47.408;18.940;2023-04-19T07:49:45;21.42;51.13
70336;SHT31;57756;47.408;18.940;2023-04-19T07:52:11;21.73;51.15
70336;SHT31;57756;47.408;18.940;2023-04-19T07:54:36;21.58;51.99
70336;SHT31;57756;47.408;18.940;2023-04-19T07:57:03;21.12;52.82
70336;SHT31;57756;47.408;18.940;2023-04-19T07:59:29;21.08;52.79
70336;SHT31;57756;47.408;18.940;2023-04-19T08:01:57;21.09;51.45
70336;SHT31;57756;47.408;18.940;2023-04-19T08:04:23;21.45;51.58
70336;SHT31;57756;47.408;18.940;2023-04-19T08:06:48;21.94;51.57
70336;SHT31;57756;47.408;18.940;2023-04-19T08:09:14;22.29;51.33
70336;SHT31;57756;47.408;18.940;2023-04-19T08:11:39;22.29;49.93
70336;SHT31;57756;47.408;18.940;2023-04-19T08:14:05;22.55;50.51
70336;SHT31;57756;47.408;18.940;2023-04-19T08:16:30;22.05;50.05
70336;SHT31;57756;47.408;18.940;2023-04-19T08:18:56;21.43;48.05
70336;SHT31;57756;47.408;18.940;2023-04-19T08:21:21;20.72;50.52
70336;SHT31;57756;47.408;18.940;2023-04-19T08:23:47;20.27;48.64
70336;SHT31;57756;47.408;18.940;2023-04-19T08:26:12;19.78;49.78
70336;SHT31;57756;47.408;18.940;2023-04-19T08:28:38;19.72;50.77
70336;SHT31;57756;47.408;18.940;2023-04-19T08:31:06;20.40;51.25
70336;SHT31;57756;47.408;18.940;2023-04-19T08:33:32;21.05;49.36
70336;SHT31;57756;47.408;18.940;2023-04-19T08:35:57;21.74;48.37
70336;SHT31;57756;47.408;18.940;2023-04-19T08:38:23;21.98;48.48
70336;SHT31;57756;47.408;18.940;2023-04-19T08:40:51;21.47;48.82
70336;SHT31;57756;47.408;18.940;2023-04-19T08:43:18;20.91;48.38
70336;SHT31;57756;47.408;18.940;2023-04-19T08:45:48;21.53;49.78
70336;SHT31;57756;47.408;18.940;2023-04-19T08:48:15;22.84;48.79
70336;SHT31;57756;47.408;18.940;2023-04-19T08:50:41;23.56;47.97
70336;SHT31;57756;47.408;18.940;2023-04-19T08:53:10;22.87;47.20
70336;SHT31;57756;47.408;18.940;2023-04-19T08:55:37;22.38;48.41
70336;SHT31;57756;47.408;18.940;2023-04-19T08:58:03;22.16;50.86
70336;SHT31;57756;47.408;18.940;2023-04-19T09:00:34;22.00;52.53
70336;SHT31;57756;47.408;18.940;2023-04-19T09:03:02;21.47;51.27
70336;SHT31;57756;47.408;18.940;2023-04-19T09:05:27;21.61;51.00
70336;SHT31;57756;47.408;18.940;2023-04-19T09:07:53;21.49;50.86
70336;SHT31;57756;47.408;18.940;2023-04-19T09:10:20;21.46;53.64
70336;SHT31;57756;47.408;18.940;2023-04-19T09:13:03;21.09;52.96
70336;SHT31;57756;47.408;18.940;2023-04-19T09:15:36;21.42;54.01
70336;SHT31;57756;47.408;18.940;2023-04-19T09:18:09;22.00;52.38
70336;SHT31;57756;47.408;18.940;2023-04-19T09:23:05;21.66;52.46
70336;SHT31;57756;47.408;18.940;2023-04-19T09:25:31;22.00;52.56
70336;SHT31;57756;47.408;18.940;2023-04-19T09:28:12;22.09;52.79
70336;SHT31;57756;47.408;18.940;2023-04-19T09:30:39;22.28;53.66
70336;SHT31;57756;47.408;18.940;2023-04-19T09:33:05;22.79;51.55
70336;SHT31;57756;47.408;18.940;2023-04-19T09:35:45;23.00;51.24
70336;SHT31;57756;47.408;18.940;2023-04-19T09:38:12;23.55;51.40
70336;SHT31;57756;47.408;18.940;2023-04-19T09:40:38;23.94;50.68
70336;SHT31;57756;47.408;18.940;2023-04-19T09:43:04;23.41;48.19
70336;SHT31;57756;47.408;18.940;2023-04-19T09:45:44;23.52;49.96
70336;SHT31;57756;47.408;18.940;2023-04-19T09:48:11;23.69;50.52
70336;SHT31;57756;47.408;18.940;2023-04-19T09:50:50;23.67;48.74
70336;SHT31;57756;47.408;18.940;2023-04-19T09:53:20;24.01;49.38
70336;SHT31;57756;47.408;18.940;2023-04-19T09:55:46;24.35;48.85
70336;SHT31;57756;47.408;18.940;2023-04-19T09:58:12;24.59;48.68
70336;SHT31;57756;47.408;18.940;2023-04-19T10:00:40;24.42;47.27
70336;SHT31;57756;47.408;18.940;2023-04-19T10:03:08;24.18;45.97
70336;SHT31;57756;47.408;18.940;2023-04-19T10:05:36;24.67;45.52
70336;SHT31;57756;47.408;18.940;2023-04-19T10:08:06;24.76;47.37
70336;SHT31;57756;47.408;18.940;2023-04-19T10:10:32;24.49;48.23
70336;SHT31;57756;47.408;18.940;2023-04-19T10:12:58;24.73;48.94
70336;SHT31;57756;47.408;18.940;2023-04-19T10:15:25;24.76;50.25
70336;SHT31;57756;47.408;18.940;2023-04-19T10:17:51;25.06;47.71
70336;SHT31;57756;47.408;18.940;2023-04-19T10:20:32;24.78;46.24
70336;SHT31;57756;47.408;18.940;2023-04-19T10:22:58;25.17;46.39
70336;SHT31;57756;47.408;18.940;2023-04-19T10:25:28;24.86;47.29
70336;SHT31;57756;47.408;18.940;2023-04-19T10:27:54;24.96;48.42
70336;SHT31;57756;47.408;18.940;2023-04-19T10:30:24;24.52;49.15
70336;SHT31;57756;47.408;18.940;2023-04-19T10:32:57;24.54;49.90
70336;SHT31;57756;47.408;18.940;2023-04-19T10:35:26;24.64;50.69
70336;SHT31;57756;47.408;18.940;2023-04-19T10:38:13;25.67;48.53
70336;SHT31;57756;47.408;18.940;2023-04-19T10:41:00;26.18;49.11
70336;SHT31;57756;47.408;18.940;2023-04-19T10:43:35;25.92;46.85
70336;SHT31;57756;47.408;18.940;2023-04-19T10:48:31;25.55;46.02
70336;SHT31;57756;47.408;18.940;2023-04-19T10:51:00;25.80;48.23
70336;SHT31;57756;47.408;18.940;2023-04-19T10:53:45;25.35;48.91
70336;SHT31;57756;47.408;18.940;2023-04-19T10:56:11;24.17;49.30
70336;SHT31;57756;47.408;18.940;2023-04-19T11:01:36;23.52;51.45
70336;SHT31;57756;47.408;18.940;2023-04-19T11:04:20;24.27;51.41
70336;SHT31;57756;47.408;18.940;2023-04-19T11:09:22;24.86;47.80
70336;SHT31;57756;47.408;18.940;2023-04-19T11:11:48;24.62;47.89
70336;SHT31;57756;47.408;18.940;2023-04-19T11:14:15;24.11;47.93
70336;SHT31;57756;47.408;18.940;2023-04-19T11:16:41;23.56;49.32
70336;SHT31;57756;47.408;18.940;2023-04-19T11:19:06;23.44;49.67
70336;SHT31;57756;47.408;18.940;2023-04-19T11:21:32;22.80;50.69
70336;SHT31;57756;47.408;18.940;2023-04-19T11:24:07;22.67;50.97
70336;SHT31;57756;47.408;18.940;2023-04-19T11:26:33;21.98;51.84
70336;SHT31;57756;47.408;18.940;2023-04-19T11:28:59;21.42;51.06
70336;SHT31;57756;47.408;18.940;2023-04-19T11:31:25;21.43;52.54
70336;SHT31;57756;47.408;18.940;2023-04-19T11:33:50;21.61;53.47
70336;SHT31;57756;47.408;18.940;2023-04-19T11:36:16;21.43;52.80
70336;SHT31;57756;47.408;18.940;2023-04-19T11:38:46;21.37;50.78
70336;SHT31;57756;47.408;18.940;2023-04-19T11:41:11;21.09;52.99
70336;SHT31;57756;47.408;18.940;2023-04-19T11:43:37;20.91;52.88
70336;SHT31;57756;47.408;18.940;2023-04-19T11:46:07;20.90;54.85
70336;SHT31;57756;47.408;18.940;2023-04-19T11:48:33;20.72;55.81
70336;SHT31;57756;47.408;18.940;2023-04-19T11:50:59;20.61;57.55
70336;SHT31;57756;47.408;18.940;2023-04-19T11:53:26;20.39;57.51
70336;SHT31;57756;47.408;18.940;2023-04-19T11:55:54;20.06;58.71
70336;SHT31;57756;47.408;18.940;2023-04-19T11:58:27;20.02;59.25
70336;SHT31;57756;47.408;18.940;2023-04-19T12:00:54;20.00;60.02
70336;SHT31;57756;47.408;18.940;2023-04-19T12:03:22;19.92;60.05
70336;SHT31;57756;47.408;18.940;2023-04-19T12:06:10;19.62;60.98
70336;SHT31;57756;47.408;18.940;2023-04-19T12:08:46;19.53;60.92
70336;SHT31;57756;47.408;18.940;2023-04-19T12:11:13;19.30;60.47
70336;SHT31;57756;47.408;18.940;2023-04-19T12:13:39;19.28;60.62
70336;SHT31;57756;47.408;18.940;2023-04-19T12:16:09;19.26;60.75
70336;SHT31;57756;47.408;18.940;2023-04-19T12:18:55;19.21;60.58
70336;SHT31;57756;47.408;18.940;2023-04-19T12:21:38;18.86;60.80
70336;SHT31;57756;47.408;18.940;2023-04-19T12:24:04;18.79;61.22
70336;SHT31;57756;47.408;18.940;2023-04-19T12:26:30;18.92;61.30
70336;SHT31;57756;47.408;18.940;2023-04-19T12:28:57;19.19;61.32
70336;SHT31;57756;47.408;18.940;2023-04-19T12:31:23;19.35;60.46
70336;SHT31;57756;47.408;18.940;2023-04-19T12:33:48;19.74;60.20
70336;SHT31;57756;47.408;18.940;2023-04-19T12:36:14;19.92;59.76
70336;SHT31;57756;47.408;18.940;2023-04-19T12:38:40;19.78;59.18
70336;SHT31;57756;47.408;18.940;2023-04-19T12:41:05;19.51;59.64
70336;SHT31;57756;47.408;18.940;2023-04-19T12:43:31;19.68;59.88
70336;SHT31;57756;47.408;18.940;2023-04-19T12:45:57;19.59;58.23
70336;SHT31;57756;47.408;18.940;2023-04-19T12:48:23;19.72;57.49
70336;SHT31;57756;47.408;18.940;2023-04-19T12:50:49;19.48;59.07
70336;SHT31;57756;47.408;18.940;2023-04-19T12:53:14;19.72;58.96
70336;SHT31;57756;47.408;18.940;2023-04-19T12:55:40;20.00;59.49
70336;SHT31;57756;47.408;18.940;2023-04-19T12:58:05;19.93;59.45
70336;SHT31;57756;47.408;18.940;2023-04-19T13:00:31;19.99;59.59
70336;SHT31;57756;47.408;18.940;2023-04-19T13:02:56;20.08;59.67
70336;SHT31;57756;47.408;18.940;2023-04-19T13:05:22;20.20;60.34
70336;SHT31;57756;47.408;18.940;2023-04-19T13:07:47;20.36;58.94
70336;SHT31;57756;47.408;18.940;2023-04-19T13:10:13;20.45;58.09
70336;SHT31;57756;47.408;18.940;2023-04-19T13:12:38;20.43;58.24
70336;SHT31;57756;47.408;18.940;2023-04-19T13:15:05;20.47;58.72
70336;SHT31;57756;47.408;18.940;2023-04-19T13:17:31;20.19;57.27
70336;SHT31;57756;47.408;18.940;2023-04-19T13:19:56;20.02;58.61
70336;SHT31;57756;47.408;18.940;2023-04-19T13:22:22;19.88;58.83
70336;SHT31;57756;47.408;18.940;2023-04-19T13:24:47;19.62;60.61
70336;SHT31;57756;47.408;18.940;2023-04-19T13:27:13;19.78;62.12
70336;SHT31;57756;47.408;18.940;2023-04-19T13:29:38;19.71;62.32
70336;SHT31;57756;47.408;18.940;2023-04-19T13:32:04;19.68;63.20
70336;SHT31;57756;47.408;18.940;2023-04-19T13:34:32;19.37;61.52
70336;SHT31;57756;47.408;18.940;2023-04-19T13:36:57;19.30;63.09
70336;SHT31;57756;47.408;18.940;2023-04-19T13:39:23;19.26;62.48
70336;SHT31;57756;47.408;18.940;2023-04-19T13:41:49;18.91;63.13
70336;SHT31;57756;47.408;18.940;2023-04-19T13:44:15;18.81;63.46
70336;SHT31;57756;47.408;18.940;2023-04-19T13:46:40;18.77;64.70
70336;SHT31;57756;47.408;18.940;2023-04-19T13:49:05;18.58;64.17
70336;SHT31;57756;47.408;18.940;2023-04-19T13:51:31;18.23;65.20
70336;SHT31;57756;47.408;18.940;2023-04-19T13:53:56;18.11;66.09
70336;SHT31;57756;47.408;18.940;2023-04-19T13:56:22;18.11;66.00
70336;SHT31;57756;47.408;18.940;2023-04-19T13:58:47;18.11;66.16
70336;SHT31;57756;47.408;18.940;2023-04-19T14:01:13;18.04;66.36
70336;SHT31;57756;47.408;18.940;2023-04-19T14:03:38;18.04;66.59
70336;SHT31;57756;47.408;18.940;2023-04-19T14:06:04;18.00;66.83
70336;SHT31;57756;47.408;18.940;2023-04-19T14:08:29;17.97;66.60
70336;SHT31;57756;47.408;18.940;2023-04-19T14:10:55;17.97;67.70
70336;SHT31;57756;47.408;18.940;2023-04-19T14:13:20;17.96;66.17
70336;SHT31;57756;47.408;18.940;2023-04-19T14:15:46;18.04;66.04
70336;SHT31;57756;47.408;18.940;2023-04-19T14:18:12;17.80;65.88
70336;SHT31;57756;47.408;18.940;2023-04-19T14:20:37;17.85;66.18
70336;SHT31;57756;47.408;18.940;2023-04-19T14:23:03;17.73;66.54
70336;SHT31;57756;47.408;18.940;2023-04-19T14:25:28;17.65;65.92
70336;SHT31;57756;47.408;18.940;2023-04-19T14:27:54;17.58;66.03
70336;SHT31;57756;47.408;18.940;2023-04-19T14:30:19;17.61;65.44
70336;SHT31;57756;47.408;18.940;2023-04-19T14:32:45;17.48;65.56
70336;SHT31;57756;47.408;18.940;2023-04-19T14:35:11;17.43;66.38
70336;SHT31;57756;47.408;18.940;2023-04-19T14:37:36;17.36;65.96
70336;SHT31;57756;47.408;18.940;2023-04-19T14:40:03;17.28;66.03
70336;SHT31;57756;47.408;18.940;2023-04-19T14:42:28;17.41;67.06
70336;SHT31;57756;47.408;18.940;2023-04-19T14:44:54;17.31;65.88
70336;SHT31;57756;47.408;18.940;2023-04-19T14:47:19;17.18;66.20
70336;SHT31;57756;47.408;18.940;2023-04-19T14:49:45;17.15;66.34
70336;SHT31;57756;47.408;18.940;2023-04-19T14:52:11;17.21;66.45
70336;SHT31;57756;47.408;18.940;2023-04-19T14:54:36;17.17;66.36
70336;SHT31;57756;47.408;18.940;2023-04-19T14:57:02;17.04;66.79
70336;SHT31;57756;47.408;18.940;2023-04-19T14:59:28;16.83;67.25
70336;SHT31;57756;47.408;18.940;2023-04-19T15:01:53;16.95;67.21
70336;SHT31;57756;47.408;18.940;2023-04-19T15:04:19;16.94;67.08
70336;SHT31;57756;47.408;18.940;2023-04-19T15:06:45;16.84;67.17
70336;SHT31;57756;47.408;18.940;2023-04-19T15:09:10;16.97;67.22
70336;SHT31;57756;47.408;18.940;2023-04-19T15:11:36;16.91;67.54
70336;SHT31;57756;47.408;18.940;2023-04-19T15:14:01;16.90;67.34
70336;SHT31;57756;47.408;18.940;2023-04-19T15:16:27;16.90;67.61
70336;SHT31;57756;47.408;18.940;2023-04-19T15:18:53;16.91;67.81
70336;SHT31;57756;47.408;18.940;2023-04-19T15:21:19;16.88;67.59
70336;SHT31;57756;47.408;18.940;2023-04-19T15:23:45;17.00;67.66